Time;durP1;ratioP1;P1;durP2;ratioP2;P2;SDS_P1;SDS_P2;PMS_P1;PMS_P2;Temp;Humidity;BMP_temperature;BMP_pressure;BME280_temperature;BME280_humidity;BME280_pressure;Samples;Min_cycle;Max_cycle;Signal;HPM_P1;HPM_P2
2021/06/27 00:01:10;;;;;;;1.83;1.60;;;;;;;18.75;66.36;98967.47;5031279;28;39871;-84
2021/06/27 00:03:58;;;;;;;1.43;1.30;;;;;;;18.72;66.27;98973.94;5034117;28;40851;-82
2021/06/27 00:06:25;;;;;;;1.10;0.90;;;;;;;18.69;66.15;98968.88;5062306;28;42095;-83
2021/06/27 00:08:55;;;;;;;1.50;1.40;;;;;;;18.65;66.32;98979.06;5054375;28;42369;-82
2021/06/27 00:11:25;;;;;;;1.43;1.33;;;;;;;18.56;66.38;98960.25;5054470;28;40058;-82
2021/06/27 00:13:53;;;;;;;1.47;1.27;;;;;;;18.49;67.08;98957.31;5076554;28;41493;-82
2021/06/27 00:16:22;;;;;;;2.20;1.37;;;;;;;18.50;67.65;98959.00;5054329;28;41721;-82
2021/06/27 00:18:50;;;;;;;3.13;1.87;;;;;;;18.53;67.47;98974.81;5070791;28;41192;-83
2021/06/27 00:21:17;;;;;;;1.57;1.33;;;;;;;18.50;67.76;98968.88;5070183;28;40768;-81
2021/06/27 00:23:49;;;;;;;1.67;1.57;;;;;;;18.38;67.54;98953.94;5071424;28;42108;-82
2021/06/27 00:26:23;;;;;;;1.60;1.50;;;;;;;18.32;67.72;98955.34;5070779;28;42269;-82
2021/06/27 00:28:51;;;;;;;2.17;1.87;;;;;;;18.39;67.66;98969.03;5050618;28;42130;-82
2021/06/27 00:31:20;;;;;;;2.63;1.47;;;;;;;18.27;67.67;98957.63;5034372;28;39087;-82
2021/06/27 00:33:48;;;;;;;1.73;1.23;;;;;;;18.33;67.63;98966.91;5050897;28;41528;-82
2021/06/27 00:36:15;;;;;;;2.00;1.90;;;;;;;18.17;67.62;98946.91;5070598;28;42637;-82
2021/06/27 00:38:44;;;;;;;1.30;1.20;;;;;;;18.14;67.81;98949.84;5071115;28;42130;-82
2021/06/27 00:41:12;;;;;;;1.70;1.60;;;;;;;18.23;67.84;98965.09;5070114;28;40855;-82
2021/06/27 00:43:42;;;;;;;1.60;1.50;;;;;;;18.20;67.42;98968.03;5061691;28;40571;-82
2021/06/27 00:46:09;;;;;;;1.87;1.43;;;;;;;18.09;67.38;98948.56;5050351;28;41676;-82
2021/06/27 00:48:38;;;;;;;1.10;1.10;;;;;;;18.14;67.39;98968.63;5050174;28;43907;-82
2021/06/27 00:51:06;;;;;;;1.33;1.23;;;;;;;18.01;67.59;98946.59;5050570;28;39298;-83
2021/06/27 00:53:34;;;;;;;2.10;1.43;;;;;;;18.03;67.38;98968.75;5086393;28;41202;-83
2021/06/27 00:56:02;;;;;;;1.93;1.70;;;;;;;17.84;67.84;98940.09;5070918;28;42757;-83
2021/06/27 00:58:31;;;;;;;1.37;1.20;;;;;;;18.00;67.91;98977.06;5070206;28;42141;-82
2021/06/27 01:01:04;;;;;;;1.43;1.33;;;;;;;17.90;67.86;98971.72;5054280;28;38919;-83
2021/06/27 01:03:32;;;;;;;1.37;1.17;;;;;;;17.94;67.94;98982.97;5053520;28;41047;-82
2021/06/27 01:06:00;;;;;;;2.57;1.30;;;;;;;17.91;67.96;98988.63;5053678;28;42106;-82
2021/06/27 01:08:28;;;;;;;2.13;1.27;;;;;;;17.88;67.82;98991.59;5070066;28;42990;-83
2021/06/27 01:10:56;;;;;;;1.43;1.27;;;;;;;17.63;68.06;98949.19;5053068;28;39306;-82
2021/06/27 01:13:25;;;;;;;1.63;0.97;;;;;;;17.80;68.13;98986.06;5071941;28;42114;-82
2021/06/27 01:15:54;;;;;;;1.10;0.70;;;;;;;17.75;68.43;98978.44;5069705;28;41787;-82
2021/06/27 01:18:23;;;;;;;1.07;0.97;;;;;;;17.67;68.35;98970.25;5070197;28;42410;-82
2021/06/27 01:20:51;;;;;;;1.10;1.00;;;;;;;17.68;68.37;98971.09;5070467;28;39807;-83
2021/06/27 01:23:21;;;;;;;1.10;0.90;;;;;;;17.75;68.50;98977.59;5053814;28;40935;-82
2021/06/27 01:25:52;;;;;;;1.30;1.20;;;;;;;17.73;68.48;98974.19;5053567;28;42422;-83
2021/06/27 01:28:20;;;;;;;1.40;1.30;;;;;;;17.64;68.07;98958.97;5069964;28;42121;-82
2021/06/27 01:30:48;;;;;;;1.03;0.93;;;;;;;17.70;68.18;98969.97;5069116;28;41062;-83
2021/06/27 01:33:19;;;;;;;1.17;0.93;;;;;;;17.69;68.51;98978.13;5078903;28;41653;-84
2021/06/27 01:35:48;;;;;;;1.27;1.00;;;;;;;17.67;68.06;98974.78;5051265;28;42472;-84
2021/06/27 01:38:17;;;;;;;1.53;1.20;;;;;;;17.53;68.14;98951.88;5049699;28;41734;-82
2021/06/27 01:40:46;;;;;;;1.20;1.10;;;;;;;17.60;68.14;98964.56;5050292;28;39611;-84
2021/06/27 01:43:18;;;;;;;1.47;1.37;;;;;;;17.61;68.58;98976.13;5032995;28;40693;-82
2021/06/27 01:45:48;;;;;;;1.57;1.47;;;;;;;17.58;68.64;98982.59;5049720;28;42838;-82
2021/06/27 01:48:17;;;;;;;0.90;0.90;;;;;;;17.58;68.75;98982.59;5054026;28;42106;-83
2021/06/27 01:50:48;;;;;;;1.63;1.20;;;;;;;17.48;68.69;98965.66;5071302;28;40632;-82
2021/06/27 01:53:22;;;;;;;1.90;1.10;;;;;;;17.52;68.41;98990.34;5052563;28;41674;-82
2021/06/27 01:56:04;;;;;;;1.43;1.33;;;;;;;17.48;68.55;98989.75;5053614;28;42968;-83
2021/06/27 01:58:34;;;;;;;1.37;1.27;;;;;;;17.38;68.61;98975.50;5052719;28;42470;-83
2021/06/27 02:01:02;;;;;;;0.93;0.80;;;;;;;17.42;68.66;98989.47;5069130;28;39825;-82
2021/06/27 02:03:30;;;;;;;0.87;0.83;;;;;;;17.39;68.85;98989.72;5071031;28;41694;-83
2021/06/27 02:05:58;;;;;;;0.77;0.70;;;;;;;17.28;69.22;98971.09;5068850;28;42420;-85
2021/06/27 02:08:32;;;;;;;2.00;1.47;;;;;;;17.24;69.31;98968.69;5069199;28;42268;-84
2021/06/27 02:11:03;;;;;;;1.63;1.43;;;;;;;17.27;69.62;98978.28;5069782;28;40798;-82
2021/06/27 02:13:31;;;;;;;1.40;1.30;;;;;;;17.26;69.89;98973.91;5052454;28;40508;-83
2021/06/27 02:15:59;;;;;;;1.30;1.20;;;;;;;17.29;69.81;98983.50;5069105;28;42729;-81
2021/06/27 02:18:32;;;;;;;1.23;1.13;;;;;;;17.19;70.12;98964.69;5052140;28;42205;-81
2021/06/27 02:21:03;;;;;;;1.47;1.07;;;;;;;17.27;70.08;98985.44;5070279;28;40882;-82
2021/06/27 02:23:31;;;;;;;1.67;1.57;;;;;;;17.24;69.93;98989.25;5052824;28;40466;-82
2021/06/27 02:26:03;;;;;;;1.20;1.00;;;;;;;17.23;70.02;98988.41;5068972;28;42822;-83
2021/06/27 02:28:31;;;;;;;1.37;1.27;;;;;;;17.22;69.98;98983.16;5051282;28;41414;-83
2021/06/27 02:31:00;;;;;;;1.60;1.30;;;;;;;17.19;69.66;98986.97;5069366;28;39146;-83
2021/06/27 02:33:28;;;;;;;1.10;1.00;;;;;;;17.09;69.67;98971.84;5068180;28;40748;-83
2021/06/27 02:35:57;;;;;;;0.97;0.93;;;;;;;17.13;69.74;98987.50;5070191;28;42506;-82
2021/06/27 02:38:26;;;;;;;2.03;1.40;;;;;;;17.04;69.66;98982.13;5068742;28;42377;-82
2021/06/27 02:40:54;;;;;;;1.37;1.27;;;;;;;17.01;69.68;98971.69;5052813;28;39036;-82
2021/06/27 02:43:25;;;;;;;1.30;1.00;;;;;;;17.02;69.70;98976.03;5067657;28;42424;-82
2021/06/27 02:45:54;;;;;;;1.00;0.90;;;;;;;16.95;69.82;98972.19;5052444;28;41715;-82
2021/06/27 02:48:22;;;;;;;1.20;1.10;;;;;;;17.03;69.65;98991.97;5067887;28;42031;-83
2021/06/27 02:50:49;;;;;;;1.27;1.10;;;;;;;16.91;69.84;98976.97;5068382;28;39896;-82
2021/06/27 02:53:17;;;;;;;1.20;0.90;;;;;;;16.97;70.19;98986.28;5051387;28;40738;-83
2021/06/27 02:55:45;;;;;;;1.37;1.20;;;;;;;16.97;70.21;98988.97;5052546;28;41728;-83
2021/06/27 02:58:13;;;;;;;1.77;1.40;;;;;;;16.95;70.45;98993.59;5067753;28;42794;-83
2021/06/27 03:00:43;;;;;;;1.27;1.17;;;;;;;16.83;70.76;98985.66;5052011;28;39308;-83
2021/06/27 03:03:10;;;;;;;1.17;1.07;;;;;;;16.91;71.22;98987.69;5068614;28;40977;-83
2021/06/27 03:05:39;;;;;;;1.87;1.40;;;;;;;16.89;71.20;98989.63;5067399;28;43354;-82
2021/06/27 03:08:06;;;;;;;2.57;1.53;;;;;;;16.89;71.54;98989.63;5051688;28;41423;-83
2021/06/27 03:10:34;;;;;;;1.60;1.30;;;;;;;16.81;71.32;98976.91;5052087;28;39878;-82
2021/06/27 03:13:02;;;;;;;1.50;1.40;;;;;;;16.87;71.40;98965.69;5068433;28;41739;-82
2021/06/27 03:15:30;;;;;;;2.20;1.73;;;;;;;16.90;72.08;98963.72;5048477;28;41821;-82
2021/06/27 03:17:59;;;;;;;2.40;1.67;;;;;;;16.94;71.87;98962.50;5048438;28;41500;-82
2021/06/27 03:20:27;;;;;;;1.60;1.40;;;;;;;16.98;72.04;98958.56;5035566;28;38918;-82
2021/06/27 03:22:54;;;;;;;1.30;1.20;;;;;;;17.13;71.65;98973.28;5068229;28;41725;-82
2021/06/27 03:25:25;;;;;;;2.00;1.70;;;;;;;16.92;71.83;98929.69;5068110;28;42625;-82
2021/06/27 03:27:53;;;;;;;2.13;1.57;;;;;;;17.14;71.94;98954.41;5051393;28;42078;-82
2021/06/27 03:30:22;;;;;;;1.57;1.37;;;;;;;17.20;71.93;98966.41;5047112;28;39876;-82
2021/06/27 03:32:50;;;;;;;3.07;2.20;;;;;;;17.27;71.62;98962.22;5048605;28;41372;-82
2021/06/27 03:35:20;;;;;;;1.73;1.63;;;;;;;17.36;71.43;98956.03;5047264;28;43509;-83
2021/06/27 03:37:53;;;;;;;1.40;1.30;;;;;;;17.44;70.72;98958.88;5048540;28;42193;-83
2021/06/27 03:40:21;;;;;;;1.73;1.37;;;;;;;17.52;70.63;98960.88;5050757;28;39866;-82
2021/06/27 03:42:50;;;;;;;1.57;1.43;;;;;;;17.47;70.57;98947.88;5035791;28;41191;-82
2021/06/27 03:45:18;;;;;;;1.33;1.23;;;;;;;17.59;70.22;98954.81;5060936;28;42401;-82
2021/06/27 03:47:46;;;;;;;1.63;1.53;;;;;;;17.66;69.94;98952.50;5055677;28;41282;-82
2021/06/27 03:50:17;;;;;;;2.10;1.50;;;;;;;17.63;70.16;98930.47;5054817;28;39222;-83
2021/06/27 03:52:46;;;;;;;1.73;1.30;;;;;;;17.77;69.90;98938.13;5051946;28;40628;-82
2021/06/27 03:55:15;;;;;;;1.03;1.00;;;;;;;17.88;69.93;98959.44;5051507;28;41659;-82
2021/06/27 03:57:44;;;;;;;1.70;1.60;;;;;;;17.90;70.06;98938.69;5034516;28;40979;-82
2021/06/27 04:00:12;;;;;;;1.30;1.20;;;;;;;18.07;70.24;98951.38;5070422;28;40868;-83
2021/06/27 04:02:41;;;;;;;2.60;1.97;;;;;;;18.09;70.62;98938.69;5071332;28;40606;-83
2021/06/27 04:05:10;;;;;;;1.63;1.43;;;;;;;18.28;70.17;98959.31;5054729;28;42245;-83
2021/06/27 04:07:38;;;;;;;1.47;1.37;;;;;;;18.38;70.07;98959.28;5070674;28;42169;-83
2021/06/27 04:10:09;;;;;;;1.60;1.50;;;;;;;18.47;70.04;98956.59;5054603;28;39155;-83
2021/06/27 04:12:37;;;;;;;2.03;1.47;;;;;;;18.53;69.73;98948.00;5070941;28;42466;-83
2021/06/27 04:15:08;;;;;;;1.50;1.40;;;;;;;18.63;69.49;98945.31;5053825;28;42620;-84
2021/06/27 04:17:36;;;;;;;2.07;1.87;;;;;;;18.80;69.16;98944.53;5072090;28;42376;-83
2021/06/27 04:20:05;;;;;;;1.50;1.30;;;;;;;18.85;69.07;98922.66;5071189;28;39677;-84
2021/06/27 04:22:33;;;;;;;1.77;1.37;;;;;;;19.04;68.81;98946.72;5050123;28;41634;-83
2021/06/27 04:25:02;;;;;;;2.00;1.90;;;;;;;19.13;68.61;98945.03;5033844;28;41640;-83
2021/06/27 04:27:32;;;;;;;2.47;1.50;;;;;;;19.07;68.22;98919.59;5051463;28;41723;-83
2021/06/27 04:30:00;;;;;;;2.50;1.63;;;;;;;19.10;68.32;98923.84;5052189;28;39925;-83
2021/06/27 04:32:28;;;;;;;1.57;1.30;;;;;;;19.11;67.99;98920.16;5070802;28;42529;-83
2021/06/27 04:34:56;;;;;;;1.40;1.20;;;;;;;19.24;68.33;98947.50;5071430;28;42161;-83
2021/06/27 04:37:24;;;;;;;1.83;1.60;;;;;;;19.23;68.28;98941.28;5071333;28;41258;-83
2021/06/27 04:39:52;;;;;;;1.80;1.70;;;;;;;19.28;68.00;98944.41;5070971;28;40122;-83
2021/06/27 04:42:19;;;;;;;1.27;1.20;;;;;;;19.24;68.40;98939.44;5054414;28;40964;-83
2021/06/27 04:44:49;;;;;;;2.10;1.90;;;;;;;19.36;68.21;98935.59;5054327;28;42717;-83
2021/06/27 04:47:16;;;;;;;2.20;1.63;;;;;;;19.32;68.00;98913.53;5070088;28;41642;-83
2021/06/27 04:49:44;;;;;;;1.43;1.33;;;;;;;19.40;67.64;98907.44;5053249;28;39790;-83
2021/06/27 04:52:12;;;;;;;2.20;2.00;;;;;;;19.53;67.91;98916.00;5048894;28;40917;-83
2021/06/27 04:54:40;;;;;;;2.53;1.63;;;;;;;19.57;67.48;98900.41;5051009;28;41799;-84
2021/06/27 04:57:09;;;;;;;2.40;1.63;;;;;;;19.67;67.63;98902.03;5033633;28;42641;-84
2021/06/27 04:59:36;;;;;;;2.30;1.93;;;;;;;19.68;67.37;98901.03;5049993;28;40575;-83
2021/06/27 05:02:06;;;;;;;2.43;1.77;;;;;;;19.68;67.20;98887.59;5051920;28;41577;-84
2021/06/27 05:04:34;;;;;;;1.87;1.60;;;;;;;19.90;67.27;98918.59;5050424;28;42709;-83
2021/06/27 05:07:01;;;;;;;3.63;1.80;;;;;;;19.94;66.91;98921.78;5074176;28;42292;-83
2021/06/27 05:09:29;;;;;;;1.63;1.53;;;;;;;19.88;66.78;98904.44;5070925;28;39202;-83
2021/06/27 05:11:57;;;;;;;2.00;1.70;;;;;;;19.89;67.00;98914.22;5053213;28;41723;-83
2021/06/27 05:14:25;;;;;;;2.20;2.00;;;;;;;19.97;66.96;98919.66;5070100;28;42837;-83
2021/06/27 05:16:54;;;;;;;2.03;1.80;;;;;;;20.00;67.01;98924.72;5053324;28;41376;-83
2021/06/27 05:19:23;;;;;;;2.60;1.97;;;;;;;20.06;66.88;98929.47;5070058;28;39006;-84
2021/06/27 05:21:51;;;;;;;1.47;1.37;;;;;;;20.16;66.59;98928.53;5070419;28;40531;-83
2021/06/27 05:24:19;;;;;;;2.30;1.40;;;;;;;20.17;66.35;98916.78;5069448;28;43451;-83
2021/06/27 05:26:47;;;;;;;1.33;1.23;;;;;;;20.40;66.19;98940.38;5052089;28;41628;-82
2021/06/27 05:29:15;;;;;;;2.13;1.93;;;;;;;20.54;66.46;98935.44;5052838;28;39786;-83
2021/06/27 05:31:43;;;;;;;2.93;2.03;;;;;;;20.65;65.91;98933.34;5053142;28;41668;-83
2021/06/27 05:34:10;;;;;;;1.93;1.70;;;;;;;20.81;65.77;98924.53;5052950;28;41886;-86
2021/06/27 05:36:40;;;;;;;2.60;2.37;;;;;;;20.92;65.27;98942.25;5049586;28;41209;-86
2021/06/27 05:39:09;;;;;;;1.60;1.50;;;;;;;20.91;65.11;98933.34;5032935;28;40949;-87
2021/06/27 05:41:38;;;;;;;1.77;1.67;;;;;;;20.94;65.37;98935.72;5032939;28;41186;-86
2021/06/27 05:44:08;;;;;;;1.07;1.07;;;;;;;21.04;65.40;98947.22;5058145;28;42822;-86
2021/06/27 05:46:36;;;;;;;1.70;1.53;;;;;;;21.09;65.26;98931.44;5050265;28;41500;-87
2021/06/27 05:49:05;;;;;;;2.83;1.80;;;;;;;21.37;65.14;98948.25;5050329;28;38964;-87
2021/06/27 05:51:36;;;;;;;2.87;2.23;;;;;;;21.52;64.73;98935.84;5050791;28;41063;-87
2021/06/27 05:54:06;;;;;;;1.97;1.60;;;;;;;21.80;64.15;98944.53;5054957;28;41538;-88
2021/06/27 05:56:34;;;;;;;1.67;1.57;;;;;;;22.15;62.79;98942.56;5054386;28;41441;-87
2021/06/27 05:59:02;;;;;;;2.00;1.90;;;;;;;22.55;61.92;98947.16;5054342;28;39969;-87
2021/06/27 06:01:30;;;;;;;2.13;1.73;;;;;;;22.85;61.20;98951.03;5050262;28;40888;-87
2021/06/27 06:03:58;;;;;;;1.83;1.60;;;;;;;23.11;60.58;98967.88;5050168;28;42197;-87
2021/06/27 06:06:26;;;;;;;1.83;1.60;;;;;;;23.20;60.30;98966.81;5034185;28;42402;-86
2021/06/27 06:08:54;;;;;;;1.50;1.33;;;;;;;23.11;60.44;98956.22;5037832;28;38953;-87
2021/06/27 06:11:25;;;;;;;2.47;2.20;;;;;;;23.13;60.09;98957.69;5070250;28;40877;-86
2021/06/27 06:13:56;;;;;;;1.47;1.37;;;;;;;23.05;60.34;98936.13;5070219;28;42963;-88
2021/06/27 06:16:24;;;;;;;2.20;2.00;;;;;;;23.21;60.38;98951.47;5053805;28;41307;-87
2021/06/27 06:18:52;;;;;;;2.37;2.17;;;;;;;23.31;59.97;98941.28;5053418;28;38868;-88
2021/06/27 06:21:22;;;;;;;1.47;1.37;;;;;;;23.34;60.17;98945.50;5071506;28;40851;-87
2021/06/27 06:23:50;;;;;;;2.33;1.80;;;;;;;23.43;60.22;98945.28;5053775;28;42690;-86
2021/06/27 06:26:18;;;;;;;1.40;1.30;;;;;;;23.48;60.36;98952.88;5070448;28;41584;-85
2021/06/27 06:28:51;;;;;;;2.30;2.10;;;;;;;23.42;59.33;98929.25;5053765;28;39862;-87
2021/06/27 06:31:19;;;;;;;1.73;1.63;;;;;;;23.65;58.70;98940.97;5054722;28;40802;-88
2021/06/27 06:33:48;;;;;;;1.83;1.60;;;;;;;23.76;58.57;98932.47;5071040;28;42528;-86
2021/06/27 06:36:16;;;;;;;2.17;1.63;;;;;;;23.84;59.09;98932.44;5053935;28;41120;-87
2021/06/27 06:38:44;;;;;;;1.87;1.77;;;;;;;23.57;58.95;98905.88;5055887;28;39277;-87
2021/06/27 06:41:11;;;;;;;2.30;2.10;;;;;;;23.59;59.15;98922.78;5073327;28;40729;-85
2021/06/27 06:43:39;;;;;;;1.63;1.47;;;;;;;23.52;59.04;98921.78;5074275;28;41778;-86
2021/06/27 06:46:09;;;;;;;2.13;1.90;;;;;;;23.51;59.00;98920.09;5073587;28;41209;-89
2021/06/27 06:48:36;;;;;;;1.70;1.60;;;;;;;23.61;58.66;98915.34;5056503;28;39663;-87
2021/06/27 06:51:05;;;;;;;1.97;1.60;;;;;;;23.64;58.11;98917.66;5049781;28;41750;-87
2021/06/27 06:53:33;;;;;;;2.37;2.17;;;;;;;23.69;58.25;98918.00;5049554;28;41712;-87
2021/06/27 06:56:01;;;;;;;2.30;1.97;;;;;;;23.94;57.84;98943.88;5053670;28;41115;-87
2021/06/27 06:58:30;;;;;;;2.33;1.70;;;;;;;23.86;57.73;98919.56;5052861;28;39910;-88
2021/06/27 07:00:58;;;;;;;2.07;1.97;;;;;;;24.12;58.07;98932.75;5053755;28;40697;-86
2021/06/27 07:03:29;;;;;;;1.73;1.63;;;;;;;24.33;57.65;98924.84;5069484;28;42829;-88
2021/06/27 07:05:59;;;;;;;2.00;1.80;;;;;;;25.03;57.43;98939.94;5056216;28;42749;-85
2021/06/27 07:08:30;;;;;;;1.80;1.70;;;;;;;25.90;54.06;98932.78;5069153;28;39871;-86
2021/06/27 07:10:58;;;;;;;2.07;1.87;;;;;;;26.90;52.12;98945.41;5052761;28;40974;-87
2021/06/27 07:13:26;;;;;;;2.30;1.83;;;;;;;27.26;51.26;98957.00;5053204;28;42227;-87
2021/06/27 07:15:54;;;;;;;2.30;2.10;;;;;;;27.30;50.66;98931.09;5072915;28;42186;-86
2021/06/27 07:18:22;;;;;;;1.73;1.63;;;;;;;27.27;50.42;98936.91;5052708;28;40991;-88
2021/06/27 07:20:52;;;;;;;1.80;1.50;;;;;;;27.30;49.89;98931.09;5036604;28;40594;-88
2021/06/27 07:23:20;;;;;;;1.70;1.60;;;;;;;27.39;48.65;98945.34;5036549;28;42153;-87
2021/06/27 07:25:48;;;;;;;2.37;2.00;;;;;;;27.56;48.72;98943.16;5053157;28;41511;-87
2021/06/27 07:28:16;;;;;;;3.07;2.00;;;;;;;27.61;47.02;98960.56;5036158;28;38983;-88
2021/06/27 07:30:44;;;;;;;1.73;1.63;;;;;;;27.64;48.31;98948.44;5036762;28;40534;-87
2021/06/27 07:33:14;;;;;;;1.60;1.50;;;;;;;27.89;48.48;98941.41;5045470;28;41968;-87
2021/06/27 07:35:42;;;;;;;1.60;1.50;;;;;;;28.06;47.82;98945.44;5076395;28;41423;-86
2021/06/27 07:38:11;;;;;;;2.10;2.00;;;;;;;28.46;46.47;98953.69;5075651;28;39913;-89
2021/06/27 07:40:40;;;;;;;1.90;1.80;;;;;;;29.24;45.01;98973.84;5076826;28;40936;-86
2021/06/27 07:43:08;;;;;;;1.73;1.60;;;;;;;29.67;43.57;98965.16;5076065;28;43813;-88
2021/06/27 07:45:36;;;;;;;1.83;1.70;;;;;;;29.98;42.61;98965.25;5092444;28;42246;-85
2021/06/27 07:48:04;;;;;;;1.50;1.40;;;;;;;30.89;40.44;98987.59;5075474;28;39988;-87
2021/06/27 07:50:32;;;;;;;1.90;1.80;;;;;;;32.42;38.73;98980.19;5085806;28;41778;-85
2021/06/27 07:53:00;;;;;;;2.10;1.90;;;;;;;33.76;35.95;99000.50;5057405;28;42164;-86
2021/06/27 07:55:30;;;;;;;1.90;1.80;;;;;;;35.18;34.85;99008.72;5073004;28;41901;-85
2021/06/27 07:57:57;;;;;;;1.50;1.40;;;;;;;36.57;32.86;98999.28;5073506;28;39907;-87
2021/06/27 08:00:25;;;;;;;2.10;2.00;;;;;;;36.69;31.51;99019.28;5058611;28;40755;-85
2021/06/27 08:02:53;;;;;;;2.00;1.90;;;;;;;37.18;31.21;99025.56;5073722;28;42377;-88
2021/06/27 08:05:21;;;;;;;2.03;1.93;;;;;;;37.57;30.41;99028.03;5057327;28;41482;-87
2021/06/27 08:07:49;;;;;;;1.50;1.40;;;;;;;37.29;30.38;99027.31;5056049;28;39918;-87
2021/06/27 08:10:17;;;;;;;2.20;2.10;;;;;;;36.53;30.30;99032.09;5056057;28;41811;-84
2021/06/27 08:12:46;;;;;;;2.00;1.90;;;;;;;35.69;32.45;99023.28;5073720;28;42774;-85
2021/06/27 08:15:18;;;;;;;2.67;2.47;;;;;;;35.53;31.72;99019.47;5056135;28;42445;-85
2021/06/27 08:17:49;;;;;;;1.77;1.67;;;;;;;36.02;32.00;99010.50;5055750;28;38890;-85
2021/06/27 08:20:18;;;;;;;1.93;1.83;;;;;;;37.01;29.99;99038.63;5055205;28;41973;-86
2021/06/27 08:22:46;;;;;;;2.23;2.13;;;;;;;38.26;28.97;99028.69;5072706;28;41828;-85
2021/06/27 08:25:14;;;;;;;2.03;1.92;;;;;;;39.36;27.58;99039.38;5054753;28;41449;-85
2021/06/27 08:27:47;;;;;;;1.83;1.73;;;;;;;39.96;25.74;99052.34;5052270;28;38981;-85
2021/06/27 08:30:17;;;;;;;1.70;1.60;;;;;;;39.88;25.72;99036.28;5035441;28;41010;-85
2021/06/27 08:32:46;;;;;;;1.73;1.63;;;;;;;39.41;27.58;99015.31;5035401;28;41499;-86
2021/06/27 08:35:16;;;;;;;2.15;2.00;;;;;;;39.05;27.44;99021.97;5040151;28;41495;-85
2021/06/27 08:37:44;;;;;;;2.13;1.92;;;;;;;38.84;27.68;99000.84;5055866;28;38962;-85
2021/06/27 08:40:14;;;;;;;1.70;1.60;;;;;;;39.25;27.86;99013.63;5054943;28;40642;-86
2021/06/27 08:42:42;;;;;;;1.83;1.73;;;;;;;39.60;26.85;99023.84;5054881;28;42685;-85
2021/06/27 08:45:16;;;;;;;1.80;1.70;;;;;;;39.81;26.72;99024.66;5072553;28;42221;-86
2021/06/27 08:47:45;;;;;;;2.07;1.87;;;;;;;38.62;27.68;99018.56;5055796;28;39156;-84
2021/06/27 08:50:15;;;;;;;1.57;1.47;;;;;;;37.65;28.01;99005.44;5054410;28;40741;-86
2021/06/27 08:52:44;;;;;;;1.90;1.80;;;;;;;37.56;28.66;99001.50;5071433;28;43259;-87
2021/06/27 08:55:13;;;;;;;1.90;1.80;;;;;;;38.20;28.26;98998.53;5055069;28;41449;-88
2021/06/27 08:57:42;;;;;;;1.73;1.63;;;;;;;38.97;26.76;99003.06;5071619;28;41823;-86
2021/06/27 09:00:13;;;;;;;1.77;1.67;;;;;;;39.82;27.65;98993.00;5055818;28;40651;-85
2021/06/27 09:02:41;;;;;;;1.75;1.65;;;;;;;40.74;25.30;99016.44;5072792;28;42242;-85
2021/06/27 09:05:11;;;;;;;4.32;2.03;;;;;;;40.88;24.88;99006.34;5055690;28;41207;-85
2021/06/27 09:07:40;;;;;;;1.70;1.60;;;;;;;41.19;24.67;99011.66;5055070;28;39688;-85
2021/06/27 09:10:10;;;;;;;1.83;1.73;;;;;;;41.20;25.49;98991.91;5070562;28;41874;-85
2021/06/27 09:12:49;;;;;;;1.53;1.43;;;;;;;41.66;24.99;99010.94;5054990;28;42864;-86
2021/06/27 09:15:41;;;;;;;1.75;1.65;;;;;;;42.25;23.12;99026.38;5054893;28;41373;-85
2021/06/27 09:18:22;;;;;;;1.65;1.55;;;;;;;42.73;23.46;99013.16;5054324;28;38872;-90
2021/06/27 09:20:51;;;;;;;1.55;1.45;;;;;;;43.41;21.97;99007.00;5054904;28;41118;-85
2021/06/27 09:23:35;;;;;;;1.50;1.40;;;;;;;44.33;20.66;99018.03;5054441;28;42631;-86
2021/06/27 09:26:03;;;;;;;1.60;1.50;;;;;;;44.97;21.20;99010.41;5054577;28;41249;-84
2021/06/27 09:28:45;;;;;;;1.60;1.50;;;;;;;44.86;19.99;99025.78;5073659;28;39916;-86
2021/06/27 09:31:33;;;;;;;1.67;1.58;;;;;;;43.74;20.97;99024.56;5055046;28;40735;-86
2021/06/27 09:34:07;;;;;;;1.63;1.52;;;;;;;43.16;22.04;99010.22;5071997;28;42518;-89
2021/06/27 09:36:39;;;;;;;1.25;1.25;;;;;;;42.79;22.03;99009.19;5071104;28;42966;-84
2021/06/27 09:39:13;;;;;;;1.58;1.48;;;;;;;42.84;22.40;98992.38;5054119;28;39202;-85
2021/06/27 09:41:49;;;;;;;1.77;1.67;;;;;;;42.38;22.57;99010.91;5071986;28;41275;-86
2021/06/27 09:44:18;;;;;;;1.77;1.67;;;;;;;41.51;22.68;98991.59;5033576;28;41903;-87
2021/06/27 09:46:50;;;;;;;1.70;1.60;;;;;;;42.20;21.83;99013.34;5050263;28;41158;-84
2021/06/27 09:49:20;;;;;;;1.50;1.40;;;;;;;42.70;21.16;99015.72;5033853;28;40899;-85
2021/06/27 09:51:53;;;;;;;1.45;1.35;;;;;;;43.24;22.13;99001.22;5058596;28;42145;-86
2021/06/27 09:54:23;;;;;;;1.50;1.40;;;;;;;44.53;21.00;99004.75;5074832;28;41822;-86
2021/06/27 09:56:51;;;;;;;1.42;1.33;;;;;;;44.95;19.95;99007.09;5073920;28;42581;-87
2021/06/27 09:59:24;;;;;;;1.17;1.08;;;;;;;44.91;19.27;99022.84;5071610;28;39088;-85
2021/06/27 10:01:58;;;;;;;1.40;1.30;;;;;;;44.47;19.51;99020.00;5053645;28;40634;-88
2021/06/27 10:04:29;;;;;;;1.60;1.50;;;;;;;44.19;20.01;99011.63;5054326;28;42866;-85
2021/06/27 10:07:00;;;;;;;1.77;1.67;;;;;;;43.98;20.31;98999.25;5053809;28;42231;-88
2021/06/27 10:09:34;;;;;;;1.75;1.65;;;;;;;43.96;19.71;98995.91;5053352;28;40148;-91
2021/06/27 10:12:05;;;;;;;1.90;1.80;;;;;;;43.25;20.77;98988.94;5053388;28;40977;-88
2021/06/27 10:14:36;;;;;;;1.50;1.40;;;;;;;42.77;22.45;98979.97;5071338;28;42752;-89
2021/06/27 10:17:12;;;;;;;1.97;1.60;;;;;;;42.01;22.49;98945.72;5053294;28;42814;-88
2021/06/27 10:19:40;;;;;;;1.63;1.53;;;;;;;41.38;22.37;98984.78;5054262;28;39248;-87
2021/06/27 10:22:08;;;;;;;1.88;1.77;;;;;;;40.50;23.21;98979.38;5053115;28;41757;-87
2021/06/27 10:24:36;;;;;;;1.80;1.70;;;;;;;39.57;23.98;98951.50;5054217;28;42332;-86
2021/06/27 10:27:05;;;;;;;1.90;1.80;;;;;;;39.19;26.00;98945.50;5053808;28;42259;-88
2021/06/27 10:29:38;;;;;;;1.47;1.37;;;;;;;38.48;25.64;98953.75;5069608;28;39732;-87
2021/06/27 10:32:12;;;;;;;1.73;1.63;;;;;;;38.06;27.33;98931.78;5053306;28;40943;-88
2021/06/27 10:34:40;;;;;;;1.80;1.70;;;;;;;37.83;26.85;98913.75;5053659;28;41695;-90
2021/06/27 10:37:11;;;;;;;1.50;1.40;;;;;;;37.91;26.58;98942.81;5052645;28;41195;-86
2021/06/27 10:39:39;;;;;;;1.97;1.77;;;;;;;37.78;26.13;98935.84;5050924;28;39923;-86
2021/06/27 10:42:08;;;;;;;1.50;1.40;;;;;;;37.64;26.13;98915.31;5049552;28;42137;-90
2021/06/27 10:44:59;;;;;;;1.50;1.40;;;;;;;37.63;26.52;98927.47;5038387;28;41731;-91
2021/06/27 10:47:32;;;;;;;1.63;1.53;;;;;;;37.27;26.49;98919.00;5053113;28;20219;-87
2021/06/27 10:50:04;;;;;;;1.10;1.10;;;;;;;37.47;26.58;98922.94;5070069;28;39092;-88
2021/06/27 10:52:59;;;;;;;1.57;1.47;;;;;;;37.58;27.64;98911.69;5053312;28;40896;-89
2021/06/27 10:55:29;;;;;;;1.60;1.50;;;;;;;37.25;25.80;98932.22;5033447;28;41794;-87
2021/06/27 10:58:08;;;;;;;1.50;1.40;;;;;;;36.86;27.27;98894.94;5032677;28;41194;-87
2021/06/27 11:01:03;;;;;;;1.57;1.47;;;;;;;36.71;27.69;98905.88;5050060;28;39048;-87
2021/06/27 11:03:35;;;;;;;1.70;1.60;;;;;;;36.53;28.23;98902.41;5088837;28;41815;-88
2021/06/27 11:06:05;;;;;;;1.90;1.80;;;;;;;36.14;27.45;98906.41;5055470;28;41522;-88
2021/06/27 11:08:39;;;;;;;1.50;1.40;;;;;;;35.58;28.37;98889.22;5053035;28;42244;-86
2021/06/27 11:11:12;;;;;;;1.80;1.70;;;;;;;35.41;29.57;98886.53;5053156;28;38747;-87
2021/06/27 11:13:41;;;;;;;1.63;1.53;;;;;;;35.24;30.58;98872.75;5053622;28;40767;-88
2021/06/27 11:16:12;;;;;;;1.97;1.87;;;;;;;35.13;31.32;98859.94;5053017;28;41579;-90
2021/06/27 11:18:44;;;;;;;1.37;1.27;;;;;;;35.12;30.22;98863.78;5069958;28;42062;-90
2021/06/27 11:21:21;;;;;;;1.73;1.60;;;;;;;34.96;28.73;98875.69;5053240;28;38890;-89
2021/06/27 11:24:05;;;;;;;1.43;1.33;;;;;;;35.01;28.69;98888.69;5069927;28;42186;-87
2021/06/27 11:29:49;;;;;;;1.57;1.47;;;;;;;35.28;29.28;98879.47;5047609;28;43127;-89
2021/06/27 11:32:41;;;;;;;1.10;1.10;;;;;;;35.55;30.78;98878.72;5049845;28;41106;-88
2021/06/27 11:35:12;;;;;;;1.17;1.17;;;;;;;35.96;30.04;98880.88;5030768;28;40741;-89
2021/06/27 11:37:43;;;;;;;1.37;1.27;;;;;;;36.22;30.54;98850.81;5049671;28;42078;-88
2021/06/27 11:40:12;;;;;;;1.73;1.10;;;;;;;36.29;27.73;98863.28;5052224;28;41109;-88
2021/06/27 11:42:46;;;;;;;1.33;1.23;;;;;;;36.53;27.63;98874.78;5053239;28;40185;-88
2021/06/27 11:45:37;;;;;;;1.03;1.03;;;;;;;37.15;29.45;98874.16;5069910;28;42448;-89
2021/06/27 11:48:08;;;;;;;1.50;1.40;;;;;;;37.46;27.43;98871.56;5049122;28;41937;-90
2021/06/27 11:50:49;;;;;;;1.40;1.30;;;;;;;37.90;25.87;98892.19;5049657;28;41252;-91